Time;durP1;ratioP1;P1;durP2;ratioP2;P2;SDS_P1;SDS_P2;PMS_P1;PMS_P2;Temp;Humidity;BMP_temperature;BMP_pressure;BME280_temperature;BME280_humidity;BME280_pressure;Samples;Min_cycle;Max_cycle;Signal;HPM_P1;HPM_P2
2022/10/14 00:01:14;;;;;;;0.63;0.28;;;;;;;26.27;39.06;101411.03;4960510;28;20034;-52
2022/10/14 00:03:43;;;;;;;0.88;0.43;;;;;;;26.27;39.13;101411.91;4977214;28;20449;-54
2022/10/14 00:06:16;;;;;;;0.77;0.40;;;;;;;26.35;39.02;101411.97;4977379;28;20031;-53
2022/10/14 00:08:46;;;;;;;1.17;0.45;;;;;;;26.27;39.17;101411.03;4977543;28;20382;-55
2022/10/14 00:11:18;;;;;;;0.40;0.32;;;;;;;26.28;39.06;101418.06;4977878;28;20101;-53
2022/10/14 00:13:47;;;;;;;1.23;0.30;;;;;;;26.28;38.96;101415.44;4960230;28;20031;-55
2022/10/14 00:16:22;;;;;;;0.52;0.22;;;;;;;26.25;39.09;101418.88;4977561;28;20511;-54
2022/10/14 00:18:49;;;;;;;;;;;;;;;26.24;39.14;101419.75;4977941;28;20034;-55
2022/10/14 00:21:18;;;;;;;0.70;0.52;;;;;;;26.29;39.10;101420.69;4977435;28;20008;-54
2022/10/14 00:23:47;;;;;;;0.40;0.25;;;;;;;26.21;39.26;101414.50;4960175;28;20117;-54
2022/10/14 00:26:18;;;;;;;1.35;0.55;;;;;;;26.17;39.11;101404.78;4976999;28;20031;-55
2022/10/14 00:28:47;;;;;;;0.40;0.30;;;;;;;26.16;39.35;101401.25;4977074;28;20515;-56
2022/10/14 00:31:16;;;;;;;1.98;0.93;;;;;;;26.17;39.06;101405.66;4977010;28;20035;-55
2022/10/14 00:33:45;;;;;;;0.98;0.40;;;;;;;26.12;39.54;101402.13;4977324;28;20030;-55
2022/10/14 00:36:14;;;;;;;1.42;0.60;;;;;;;26.09;39.67;101399.41;4977006;28;20034;-55
2022/10/14 00:38:44;;;;;;;0.40;0.30;;;;;;;26.16;39.21;101390.75;4959807;28;20476;-55
2022/10/14 00:41:15;;;;;;;0.25;0.25;;;;;;;26.13;39.47;101384.59;4976619;28;20026;-56
2022/10/14 00:44:04;;;;;;;0.57;0.30;;;;;;;26.14;39.10;101384.63;4976848;28;20472;-55
2022/10/14 00:46:35;;;;;;;1.25;0.40;;;;;;;26.14;39.18;101387.25;4970751;28;20484;-55
2022/10/14 00:49:08;;;;;;;1.55;0.82;;;;;;;26.09;39.17;101375.75;4976644;28;20033;-55
2022/10/14 00:51:38;;;;;;;0.65;0.30;;;;;;;26.12;39.18;101373.19;4976772;28;20066;-55
2022/10/14 00:54:07;;;;;;;1.00;0.50;;;;;;;26.07;39.18;101369.59;4976433;28;20022;-55
2022/10/14 00:56:36;;;;;;;1.85;0.30;;;;;;;26.03;39.57;101365.16;4976877;28;20027;-54
2022/10/14 00:59:05;;;;;;;0.63;0.30;;;;;;;26.08;39.30;101366.09;4959724;28;20073;-55
2022/10/14 01:01:34;;;;;;;1.80;0.47;;;;;;;26.04;39.41;101366.94;4976565;28;20027;-54
2022/10/14 01:04:02;;;;;;;0.57;0.38;;;;;;;26.02;39.57;101366.03;4976714;28;20019;-55
2022/10/14 01:06:53;;;;;;;0.57;0.28;;;;;;;25.99;39.58;101361.63;4958701;28;20548;-56
2022/10/14 01:09:25;;;;;;;0.47;0.22;;;;;;;26.04;39.25;101353.78;4959533;28;20385;-55
2022/10/14 01:11:57;;;;;;;0.50;0.20;;;;;;;26.04;39.34;101361.66;4976273;28;20393;-55
2022/10/14 01:14:31;;;;;;;2.08;0.45;;;;;;;26.00;39.47;101354.59;4976670;28;20019;-55
2022/10/14 01:17:20;;;;;;;0.82;0.40;;;;;;;25.99;39.64;101353.75;4959349;28;20479;-54
2022/10/14 01:20:26;;;;;;;2.17;0.30;;;;;;;25.98;39.69;101346.72;4952864;28;20038;-55
2022/10/14 01:23:14;;;;;;;0.70;0.38;;;;;;;26.00;39.52;101350.25;4976269;28;20023;-56
2022/10/14 01:26:10;;;;;;;0.40;0.20;;;;;;;26.00;39.47;101345.00;4973102;28;20121;-54
2022/10/14 01:28:54;;;;;;;0.40;0.25;;;;;;;25.95;39.46;101338.78;4962105;28;20093;-55
2022/10/14 01:31:24;;;;;;;1.40;0.40;;;;;;;25.96;39.86;101337.06;4975945;28;20497;-55
2022/10/14 01:33:56;;;;;;;0.60;0.28;;;;;;;25.96;39.40;101335.31;4959056;28;20037;-55
2022/10/14 01:36:29;;;;;;;0.77;0.32;;;;;;;25.93;39.79;101338.78;4958811;28;20385;-55
2022/10/14 01:39:23;;;;;;;1.75;0.57;;;;;;;25.85;39.91;101324.66;4975933;28;20031;-55
2022/10/14 01:41:57;;;;;;;2.83;0.40;;;;;;;25.90;39.79;101335.22;4975888;28;20027;-55
2022/10/14 01:44:27;;;;;;;0.33;0.30;;;;;;;25.87;39.58;101330.84;4958692;28;20565;-55
2022/10/14 01:46:55;;;;;;;1.30;0.50;;;;;;;25.89;39.46;101328.25;4958916;28;20034;-56
2022/10/14 01:49:33;;;;;;;3.70;0.50;;;;;;;25.84;39.73;101327.28;4958385;28;20037;-55
2022/10/14 01:52:06;;;;;;;1.13;0.30;;;;;;;25.84;39.68;101312.41;4958611;28;20030;-56
2022/10/14 01:54:38;;;;;;;3.03;0.57;;;;;;;25.84;39.50;101317.66;4958166;28;20030;-56
2022/10/14 01:57:10;;;;;;;0.65;0.38;;;;;;;25.86;39.54;101310.66;4958379;28;20061;-55
2022/10/14 01:59:39;;;;;;;0.52;0.30;;;;;;;25.93;39.49;101314.25;4975836;28;20054;-55
2022/10/14 02:02:08;;;;;;;0.73;0.30;;;;;;;25.90;39.65;101312.47;4974957;28;20033;-55
2022/10/14 02:04:36;;;;;;;0.40;0.30;;;;;;;25.93;39.46;101307.25;4975352;28;20041;-55
2022/10/14 02:07:16;;;;;;;1.45;0.40;;;;;;;25.85;39.70;101305.41;4975364;28;20508;-55
2022/10/14 02:09:51;;;;;;;1.05;0.30;;;;;;;25.86;39.90;101296.66;4975298;28;20094;-47
2022/10/14 02:12:37;;;;;;;;;;;;;;;25.84;39.78;101293.13;4975737;28;20106;-46
2022/10/14 02:15:38;;;;;;;0.40;0.22;;;;;;;25.92;39.64;101304.59;4971571;28;19910;-55
2022/10/14 02:18:16;;;;;;;0.40;0.20;;;;;;;25.91;39.57;101297.56;4956535;28;20071;-55
2022/10/14 02:20:49;;;;;;;0.50;0.40;;;;;;;25.90;39.58;101296.69;4958280;28;20027;-56
2022/10/14 02:23:21;;;;;;;1.23;0.40;;;;;;;25.86;39.64;101292.28;4975522;28;20033;-55
2022/10/14 02:25:51;;;;;;;1.02;0.20;;;;;;;25.84;39.73;101278.22;4973468;28;20544;-56
2022/10/14 02:28:23;;;;;;;0.40;0.15;;;;;;;25.82;39.94;101268.56;4973904;28;20488;-55
2022/10/14 02:30:56;;;;;;;0.95;0.30;;;;;;;25.84;39.50;101267.72;4975154;28;20037;-56
2022/10/14 02:33:28;;;;;;;0.73;0.10;;;;;;;25.85;39.54;101261.59;4974963;28;20078;-55
2022/10/14 02:35:57;;;;;;;1.13;0.30;;;;;;;25.79;39.80;101254.53;4974955;28;20042;-55
2022/10/14 02:38:26;;;;;;;0.90;0.38;;;;;;;25.77;39.51;101251.00;4957863;28;20090;-55
2022/10/14 02:40:56;;;;;;;0.40;0.20;;;;;;;25.77;39.89;101250.16;4975095;28;20081;-54
2022/10/14 02:43:24;;;;;;;0.45;0.28;;;;;;;25.71;40.05;101237.84;4957853;28;20437;-55
2022/10/14 02:45:58;;;;;;;0.80;0.20;;;;;;;25.75;39.84;101231.72;4974592;28;20465;-54
2022/10/14 02:48:26;;;;;;;0.47;0.20;;;;;;;25.78;39.56;101225.63;4974778;28;20109;-56
2022/10/14 02:50:55;;;;;;;0.45;0.20;;;;;;;25.76;39.83;101214.22;4974840;28;20038;-56
2022/10/14 02:53:24;;;;;;;0.82;0.30;;;;;;;25.81;39.63;101217.78;4973406;28;20112;-54
2022/10/14 02:55:53;;;;;;;0.80;0.30;;;;;;;25.73;39.68;101207.16;4974585;28;20026;-56
2022/10/14 02:58:21;;;;;;;0.47;0.30;;;;;;;25.76;39.88;101207.19;4974682;28;20128;-55
2022/10/14 03:00:50;;;;;;;0.45;0.10;;;;;;;25.77;39.66;101200.22;4974311;28;20033;-54
2022/10/14 03:03:19;;;;;;;0.40;0.30;;;;;;;25.71;39.64;101192.25;4974568;28;20019;-56
2022/10/14 03:05:47;;;;;;;0.77;0.20;;;;;;;25.59;39.74;101167.66;4974350;28;20086;-54
2022/10/14 03:08:16;;;;;;;0.55;0.20;;;;;;;25.68;40.10;101184.34;4974464;28;20049;-56
2022/10/14 03:10:46;;;;;;;0.20;0.20;;;;;;;25.61;40.02;101186.03;4974256;28;20118;-55
2022/10/14 03:13:15;;;;;;;0.73;0.17;;;;;;;25.63;39.85;101174.69;4974831;28;20045;-54
2022/10/14 03:15:43;;;;;;;0.82;0.38;;;;;;;25.57;40.07;101179.00;4974327;28;20053;-55
2022/10/14 03:18:12;;;;;;;0.38;0.30;;;;;;;25.58;39.99;101165.00;4974230;28;20034;-56
2022/10/14 03:20:40;;;;;;;0.38;0.20;;;;;;;25.60;40.16;101158.91;4974425;28;20030;-56
2022/10/14 03:23:07;;;;;;;0.40;0.17;;;;;;;25.67;39.88;101153.69;4974203;28;20026;-56
2022/10/14 03:25:36;;;;;;;0.47;0.20;;;;;;;25.62;40.18;101141.41;4974329;28;20435;-56
2022/10/14 03:28:04;;;;;;;0.52;0.30;;;;;;;25.66;39.81;101141.41;4974218;28;20041;-56
2022/10/14 03:30:33;;;;;;;0.63;0.10;;;;;;;25.69;39.70;101134.47;4974106;28;20066;-50
2022/10/14 03:33:01;;;;;;;1.13;0.30;;;;;;;25.62;40.03;101120.41;4973681;28;20137;-55
2022/10/14 03:35:30;;;;;;;1.65;0.35;;;;;;;25.60;40.00;101119.50;4974124;28;20031;-56
2022/10/14 03:38:01;;;;;;;0.60;0.30;;;;;;;25.65;39.67;101114.28;4974121;28;20050;-56
2022/10/14 03:40:30;;;;;;;0.98;0.30;;;;;;;25.66;39.96;101109.88;4974021;28;20031;-54
2022/10/14 03:43:00;;;;;;;0.28;0.20;;;;;;;25.57;40.07;101103.69;4974226;28;20026;-56
2022/10/14 03:45:28;;;;;;;0.32;0.30;;;;;;;25.52;40.06;101102.78;4973968;28;20065;-55
2022/10/14 03:47:57;;;;;;;0.10;0.10;;;;;;;25.53;40.12;101099.28;4973700;28;20118;-56
2022/10/14 03:50:25;;;;;;;0.32;0.17;;;;;;;25.56;40.16;101099.31;4973748;28;20105;-52
2022/10/14 03:52:54;;;;;;;0.30;0.30;;;;;;;25.53;40.32;101094.03;4974052;28;20366;-55
2022/10/14 03:55:22;;;;;;;0.30;0.10;;;;;;;25.54;40.17;101093.16;4973980;28;20039;-55
2022/10/14 03:57:51;;;;;;;0.75;0.20;;;;;;;25.47;40.47;101081.72;4956923;28;20401;-55
2022/10/14 04:00:19;;;;;;;0.43;0.30;;;;;;;25.53;40.29;101078.28;4974143;28;20114;-55
2022/10/14 04:02:48;;;;;;;0.63;0.10;;;;;;;25.60;40.09;101074.84;4973827;28;20042;-56
2022/10/14 04:05:17;;;;;;;0.60;0.30;;;;;;;25.54;39.95;101074.78;4973453;28;20041;-55
2022/10/14 04:07:45;;;;;;;0.70;0.20;;;;;;;25.57;39.90;101077.44;4973808;28;20034;-55
2022/10/14 04:10:14;;;;;;;1.17;0.22;;;;;;;25.49;40.35;101071.22;4973928;28;20066;-55
2022/10/14 04:12:42;;;;;;;1.83;0.17;;;;;;;25.48;40.18;101070.34;4973970;28;20027;-55
2022/10/14 04:15:11;;;;;;;0.17;0.15;;;;;;;25.45;40.38;101069.47;4973697;28;20416;-53
2022/10/14 04:17:39;;;;;;;0.55;0.20;;;;;;;25.50;39.99;101057.22;4974680;28;20038;-55
2022/10/14 04:20:07;;;;;;;2.17;0.40;;;;;;;25.55;40.16;101060.78;4977451;28;20026;-54
2022/10/14 04:22:34;;;;;;;0.20;0.10;;;;;;;25.58;40.09;101052.03;4977392;28;20026;-55
2022/10/14 04:25:02;;;;;;;0.80;0.20;;;;;;;25.54;40.11;101052.91;4977127;28;20477;-54
2022/10/14 04:27:30;;;;;;;1.08;0.20;;;;;;;25.56;40.05;101051.16;4977515;28;20038;-54
2022/10/14 04:29:59;;;;;;;0.57;0.30;;;;;;;25.52;40.13;101039.75;4977412;28;20081;-56
2022/10/14 04:32:27;;;;;;;0.38;0.32;;;;;;;25.51;39.98;101037.97;4977081;28;20055;-55
2022/10/14 04:34:56;;;;;;;0.25;0.10;;;;;;;25.59;39.84;101031.03;4977288;28;20492;-56
2022/10/14 04:37:24;;;;;;;0.52;0.10;;;;;;;25.53;39.95;101030.13;4977240;28;20453;-55
2022/10/14 04:39:53;;;;;;;0.28;0.15;;;;;;;25.51;40.02;101022.22;4977118;28;20035;-55
2022/10/14 04:42:21;;;;;;;0.65;0.10;;;;;;;25.52;39.98;101026.59;4977056;28;20412;-54
2022/10/14 04:44:50;;;;;;;0.85;0.35;;;;;;;25.54;39.71;101011.75;4976874;28;20027;-56
2022/10/14 04:47:18;;;;;;;0.85;0.35;;;;;;;25.50;40.08;101011.72;4975299;28;20039;-55
2022/10/14 04:49:47;;;;;;;0.43;0.10;;;;;;;25.61;39.98;101007.41;4976386;28;20035;-56
2022/10/14 04:52:16;;;;;;;0.45;0.20;;;;;;;25.54;39.99;100995.97;4975986;28;20030;-56
2022/10/14 04:54:43;;;;;;;0.38;0.20;;;;;;;25.52;40.12;100983.72;4976976;28;20038;-53
2022/10/14 04:57:12;;;;;;;0.45;0.28;;;;;;;25.54;39.96;100984.59;4976910;28;20540;-55
2022/10/14 04:59:40;;;;;;;0.17;0.10;;;;;;;25.58;39.91;100978.47;4976551;28;20388;-56
2022/10/14 05:02:09;;;;;;;0.22;0.17;;;;;;;25.57;40.16;100972.38;4976803;28;20027;-56
2022/10/14 05:04:38;;;;;;;0.13;0.10;;;;;;;25.66;39.92;100965.38;4976636;28;20031;-56
2022/10/14 05:07:06;;;;;;;0.70;0.30;;;;;;;25.67;39.77;100968.03;4976611;28;20023;-56
2022/10/14 05:09:35;;;;;;;0.68;0.10;;;;;;;25.72;39.53;100970.69;4976409;28;20073;-56
2022/10/14 05:12:03;;;;;;;0.85;0.20;;;;;;;25.70;39.58;100959.28;4976629;28;20473;-55
2022/10/14 05:14:31;;;;;;;1.92;0.52;;;;;;;25.78;39.93;100954.97;4975873;28;20038;-56
2022/10/14 05:17:00;;;;;;;3.63;0.50;;;;;;;25.78;39.80;100958.47;4976473;28;20023;-54
2022/10/14 05:19:28;;;;;;;1.30;0.50;;;;;;;25.76;39.57;100956.72;4975896;28;20034;-54
2022/10/14 05:21:57;;;;;;;2.08;0.82;;;;;;;25.73;40.10;100944.41;4976253;28;20130;-55
2022/10/14 05:24:25;;;;;;;3.13;1.05;;;;;;;25.74;40.02;100938.28;4959306;28;20108;-56
2022/10/14 05:26:54;;;;;;;7.40;1.33;;;;;;;25.84;39.62;100939.22;4976488;28;20027;-56
2022/10/14 05:29:22;;;;;;;3.10;0.75;;;;;;;25.80;39.74;100934.84;4974996;28;20162;-55
2022/10/14 05:31:51;;;;;;;4.15;1.15;;;;;;;25.70;39.86;100933.03;4975933;28;20051;-55
2022/10/14 05:34:19;;;;;;;2.25;0.88;;;;;;;25.73;40.06;100944.41;4976056;28;20045;-56
2022/10/14 05:36:48;;;;;;;2.97;1.08;;;;;;;25.68;40.00;100929.50;4976297;28;20030;-54
2022/10/14 05:39:16;;;;;;;4.85;1.33;;;;;;;25.73;39.83;100928.66;4976152;28;20030;-56
2022/10/14 05:41:45;;;;;;;3.83;1.33;;;;;;;25.74;40.00;100925.16;4976062;28;20022;-55
2022/10/14 05:44:13;;;;;;;2.80;1.10;;;;;;;25.75;40.25;100920.78;4975934;28;20027;-55
2022/10/14 05:46:42;;;;;;;4.85;1.50;;;;;;;25.72;40.37;100915.50;4975965;28;20034;-56
2022/10/14 05:49:12;;;;;;;6.50;1.60;;;;;;;25.72;40.36;100916.41;4974428;28;20027;-55
2022/10/14 05:51:40;;;;;;;5.65;1.52;;;;;;;25.74;40.26;100917.28;4975480;28;20031;-55
2022/10/14 05:54:09;;;;;;;7.70;2.10;;;;;;;25.77;40.54;100919.91;4975675;28;20026;-52
2022/10/14 05:56:41;;;;;;;6.47;1.90;;;;;;;25.75;40.51;100911.16;4975561;28;20066;-55
2022/10/14 05:59:10;;;;;;;10.93;1.98;;;;;;;25.73;40.56;100912.88;4975586;28;20038;-55
2022/10/14 06:01:37;;;;;;;8.70;2.15;;;;;;;25.61;40.82;100897.97;4975480;28;20018;-56
2022/10/14 06:04:06;;;;;;;9.18;2.30;;;;;;;25.69;40.65;100911.13;4958538;28;20458;-56
2022/10/14 06:06:35;;;;;;;6.38;1.90;;;;;;;25.69;40.93;100907.63;4975491;28;20033;-55
2022/10/14 06:09:03;;;;;;;7.85;2.42;;;;;;;25.70;40.69;100904.13;4975444;28;20023;-56
2022/10/14 06:11:31;;;;;;;8.93;2.53;;;;;;;25.75;40.86;100903.25;4974152;28;20500;-55
2022/10/14 06:14:00;;;;;;;9.27;2.22;;;;;;;25.78;40.71;100889.28;4975143;28;20089;-55
2022/10/14 06:16:27;;;;;;;7.70;2.17;;;;;;;25.78;40.77;100884.03;4975252;28;20476;-54
2022/10/14 06:18:56;;;;;;;7.47;2.17;;;;;;;25.75;41.03;100886.63;4975162;28;20441;-55
2022/10/14 06:21:25;;;;;;;4.43;1.60;;;;;;;25.84;40.58;100884.03;4975274;28;20455;-56
2022/10/14 06:23:53;;;;;;;6.95;2.33;;;;;;;25.83;40.68;100874.38;4975080;28;20022;-56
2022/10/14 06:26:22;;;;;;;6.88;2.13;;;;;;;25.88;40.40;100871.81;4975047;28;20495;-56
2022/10/14 06:28:51;;;;;;;10.45;2.28;;;;;;;25.81;40.71;100876.16;4973492;28;20034;-54
2022/10/14 06:31:19;;;;;;;6.88;2.10;;;;;;;25.84;40.73;100872.66;4974525;28;20023;-54
2022/10/14 06:33:48;;;;;;;6.10;1.77;;;;;;;25.85;40.83;100879.66;4975062;28;20035;-53
2022/10/14 06:36:17;;;;;;;4.63;2.15;;;;;;;25.79;40.64;100877.91;4974960;28;20132;-56
2022/10/14 06:38:45;;;;;;;13.48;3.35;;;;;;;25.82;41.14;100875.25;4974942;28;20030;-56
2022/10/14 06:41:14;;;;;;;7.72;2.10;;;;;;;25.80;40.86;100877.03;4974421;28;20097;-56
2022/10/14 06:43:42;;;;;;;8.82;2.50;;;;;;;25.73;40.94;100873.47;4974667;28;20035;-55
2022/10/14 06:46:11;;;;;;;7.40;2.35;;;;;;;25.69;41.20;100873.47;4974539;28;20508;-57
2022/10/14 06:48:39;;;;;;;8.57;2.63;;;;;;;25.67;41.26;100880.47;4974748;28;20113;-56
2022/10/14 06:51:09;;;;;;;8.48;2.60;;;;;;;25.75;41.26;100884.00;4974859;28;20378;-55
2022/10/14 06:53:38;;;;;;;7.50;2.35;;;;;;;25.70;41.24;100880.47;4974605;28;20035;-56
2022/10/14 06:56:08;;;;;;;7.00;2.35;;;;;;;25.75;41.10;100884.00;4974733;28;20472;-56
2022/10/14 06:58:36;;;;;;;6.22;2.13;;;;;;;25.76;41.07;100886.63;4974745;28;20037;-55
2022/10/14 07:01:06;;;;;;;7.60;2.40;;;;;;;25.81;40.94;100885.78;4974807;28;20101;-54
2022/10/14 07:03:36;;;;;;;9.18;2.50;;;;;;;25.75;41.19;100890.13;4974457;28;20031;-56
2022/10/14 07:06:06;;;;;;;9.55;2.88;;;;;;;25.77;41.40;100879.66;4974389;28;20058;-56
2022/10/14 07:08:35;;;;;;;7.00;2.50;;;;;;;25.84;41.09;100884.03;4974504;28;20031;-56
2022/10/14 07:11:03;;;;;;;8.13;2.58;;;;;;;25.76;41.23;100889.25;4973971;28;20488;-56
2022/10/14 07:13:33;;;;;;;6.53;2.00;;;;;;;25.75;41.23;100878.75;4974480;28;20042;-56
2022/10/14 07:16:02;;;;;;;6.47;2.50;;;;;;;25.70;41.64;100888.34;4974368;28;20035;-55
2022/10/14 07:18:30;;;;;;;10.15;2.53;;;;;;;25.75;41.49;100879.63;4974373;28;20031;-55
2022/10/14 07:21:04;;;;;;;9.10;2.33;;;;;;;25.66;41.34;100882.22;4974485;28;20031;-56
2022/10/14 07:23:33;;;;;;;7.90;2.53;;;;;;;25.70;41.48;100886.63;4974672;28;20029;-56
2022/10/14 07:26:02;;;;;;;6.30;2.40;;;;;;;25.75;41.44;100898.00;4974493;28;20023;-54
2022/10/14 07:28:30;;;;;;;9.15;2.33;;;;;;;25.74;41.56;100877.00;4974286;28;20027;-55
2022/10/14 07:31:05;;;;;;;9.10;2.53;;;;;;;25.73;41.36;100870.84;4974301;28;20031;-56
2022/10/14 07:33:33;;;;;;;;;;;;;;;25.81;41.38;100868.28;4974745;28;20050;-52
2022/10/14 07:36:03;;;;;;;8.02;2.63;;;;;;;25.83;41.68;100871.75;4973110;28;19914;-54
2022/10/14 07:38:30;;;;;;;9.15;2.25;;;;;;;25.76;41.48;100865.59;4986945;28;20034;-53
2022/10/14 07:41:00;;;;;;;7.43;2.42;;;;;;;25.68;41.75;100871.69;4993752;28;20033;-53
2022/10/14 07:43:28;;;;;;;8.35;2.38;;;;;;;25.70;41.73;100875.22;4992200;28;20061;-54
2022/10/14 07:45:59;;;;;;;12.95;3.33;;;;;;;25.72;41.42;100862.97;4975100;28;20384;-54
2022/10/14 07:48:28;;;;;;;7.28;2.63;;;;;;;25.77;41.38;100863.88;4989174;28;20057;-47
2022/10/14 07:50:55;;;;;;;9.85;2.53;;;;;;;25.77;41.55;100872.63;4991930;28;20030;-53
2022/10/14 07:53:25;;;;;;;7.72;2.60;;;;;;;25.81;40.99;100876.16;4992382;28;20035;-56
2022/10/14 07:55:53;;;;;;;6.07;2.15;;;;;;;25.82;41.42;100879.66;4992185;28;20038;-56
2022/10/14 07:58:23;;;;;;;8.15;2.53;;;;;;;25.85;41.34;100882.31;4980547;28;20022;-55
2022/10/14 08:00:51;;;;;;;10.05;2.83;;;;;;;25.81;41.39;100864.75;4993921;28;20467;-52
2022/10/14 08:03:20;;;;;;;8.95;2.50;;;;;;;25.80;41.59;100871.78;4993920;28;20066;-54
2022/10/14 08:05:49;;;;;;;9.52;2.85;;;;;;;25.92;41.24;100870.91;4979108;28;20038;-56
2022/10/14 08:08:18;;;;;;;9.05;2.90;;;;;;;25.90;41.44;100876.19;4996260;28;20045;-54
2022/10/14 08:10:46;;;;;;;10.00;2.78;;;;;;;25.94;41.05;100879.69;4996295;28;20038;-51
2022/10/14 08:13:14;;;;;;;6.40;2.40;;;;;;;25.97;40.79;100887.59;4991850;28;20048;-54
2022/10/14 08:15:42;;;;;;;7.22;2.25;;;;;;;25.95;41.49;100886.69;4994673;28;20030;-55
2022/10/14 08:18:10;;;;;;;7.88;2.47;;;;;;;25.93;41.32;100891.06;4993432;28;20030;-53
2022/10/14 08:20:37;;;;;;;8.65;3.38;;;;;;;25.87;41.60;100880.56;4994791;28;20026;-53
2022/10/14 08:23:04;;;;;;;9.70;3.20;;;;;;;25.77;41.46;100861.25;4994982;28;20030;-53
2022/10/14 08:25:32;;;;;;;10.85;3.42;;;;;;;25.93;41.59;100889.34;4995969;28;20023;-52
2022/10/14 08:28:00;;;;;;;12.20;4.00;;;;;;;26.02;41.31;100885.88;4961382;28;20041;-55
2022/10/14 08:30:27;;;;;;;10.88;3.25;;;;;;;25.99;41.45;100896.38;4993241;28;20217;-56
2022/10/14 08:32:54;;;;;;;8.13;2.85;;;;;;;26.03;41.25;100890.25;4993623;28;20125;-54
2022/10/14 08:35:21;;;;;;;10.68;2.97;;;;;;;26.03;41.81;100885.00;4994605;28;20038;-50
2022/10/14 08:37:59;;;;;;;7.35;2.30;;;;;;;25.98;41.74;100893.75;4995193;28;20030;-53
2022/10/14 08:40:28;;;;;;;8.02;2.50;;;;;;;25.92;41.48;100892.84;4994305;28;20050;-55
2022/10/14 08:43:01;;;;;;;9.07;2.70;;;;;;;25.89;41.71;100897.22;4994719;28;20040;-54
2022/10/14 08:45:35;;;;;;;10.18;3.20;;;;;;;25.97;41.53;100891.97;4993908;28;20026;-53
2022/10/14 08:48:09;;;;;;;9.38;3.30;;;;;;;26.01;41.62;100888.47;5005630;28;20125;-53
2022/10/14 08:50:44;;;;;;;13.27;3.67;;;;;;;26.03;41.81;100882.38;4996023;28;20044;-53
2022/10/14 08:53:18;;;;;;;9.10;2.88;;;;;;;25.90;41.56;100873.56;4976853;28;20034;-54
2022/10/14 08:55:53;;;;;;;9.40;2.83;;;;;;;26.05;41.54;100880.63;4992145;28;20396;-55
2022/10/14 08:58:27;;;;;;;8.70;2.55;;;;;;;26.04;41.51;100881.50;4995250;28;20026;-48
2022/10/14 09:00:55;;;;;;;9.88;3.00;;;;;;;25.99;41.44;100877.97;4975970;28;20030;-51
2022/10/14 09:03:31;;;;;;;8.27;2.60;;;;;;;25.97;41.73;100878.84;4975441;28;20022;-55
2022/10/14 09:06:05;;;;;;;8.18;2.95;;;;;;;26.01;42.19;100872.69;4995577;28;20783;-54
2022/10/14 09:08:38;;;;;;;7.40;2.17;;;;;;;25.99;41.97;100869.19;4997347;28;20053;-56
2022/10/14 09:11:10;;;;;;;7.63;2.00;;;;;;;25.99;42.03;100869.19;4980622;28;20042;-54
2022/10/14 09:13:39;;;;;;;7.28;2.33;;;;;;;25.97;41.68;100869.19;4975386;28;20090;-55
2022/10/14 09:16:19;;;;;;;6.60;2.25;;;;;;;25.94;42.01;100875.31;4994818;28;20026;-54
2022/10/14 09:19:00;;;;;;;5.07;2.33;;;;;;;26.03;41.50;100881.47;4994783;28;20153;-55
2022/10/14 09:21:31;;;;;;;9.13;3.10;;;;;;;26.07;41.57;100891.13;4994243;28;20042;-55
2022/10/14 09:24:10;;;;;;;5.65;2.15;;;;;;;26.05;42.02;100892.88;4995098;28;20404;-55
2022/10/14 09:26:41;;;;;;;7.00;2.08;;;;;;;26.05;41.95;100896.41;4995328;28;20026;-53
2022/10/14 09:29:29;;;;;;;7.50;2.55;;;;;;;26.00;41.83;100887.59;4990451;28;20085;-50
2022/10/14 09:32:01;;;;;;;9.38;2.30;;;;;;;26.04;42.18;100878.88;4996527;28;20039;-54
2022/10/14 09:34:33;;;;;;;8.85;2.92;;;;;;;26.10;41.92;100880.63;4978313;28;20027;-55
2022/10/14 09:37:10;;;;;;;6.75;2.25;;;;;;;26.05;41.90;100882.34;4994963;28;20049;-54
2022/10/14 09:39:40;;;;;;;8.85;2.17;;;;;;;25.93;42.21;100877.94;4991800;28;20018;-55
2022/10/14 09:42:15;;;;;;;7.05;2.45;;;;;;;25.91;42.13;100896.34;4995317;28;20105;-55
2022/10/14 09:44:44;;;;;;;8.50;2.63;;;;;;;25.98;42.10;100899.88;4977773;28;20029;-51
2022/10/14 09:47:17;;;;;;;9.57;3.05;;;;;;;25.97;42.06;100899.88;4994943;28;20109;-55
2022/10/14 09:49:47;;;;;;;9.27;2.40;;;;;;;25.95;42.42;100897.22;4994926;28;20026;-54
2022/10/14 09:52:26;;;;;;;10.13;3.42;;;;;;;25.93;42.39;100891.97;4994710;28;20058;-55
2022/10/14 09:54:56;;;;;;;10.35;2.88;;;;;;;25.92;42.25;100887.59;4993931;28;20040;-54
2022/10/14 09:57:25;;;;;;;8.90;2.75;;;;;;;25.95;42.14;100891.97;4978182;28;20105;-54
2022/10/14 10:00:00;;;;;;;11.32;2.83;;;;;;;25.84;42.24;100891.91;4978155;28;20064;-51
2022/10/14 10:02:40;;;;;;;8.57;2.58;;;;;;;25.85;42.15;100890.19;4994905;28;20026;-55
2022/10/14 10:05:18;;;;;;;8.32;2.28;;;;;;;25.91;42.02;100891.09;4977734;28;20476;-54
2022/10/14 10:08:01;;;;;;;10.80;2.72;;;;;;;26.07;42.30;100883.25;4977843;28;20025;-55
2022/10/14 10:10:29;;;;;;;7.93;2.65;;;;;;;26.12;41.84;100889.44;4994831;28;20085;-55
2022/10/14 10:12:58;;;;;;;7.80;2.58;;;;;;;26.01;41.70;100892.00;4994573;28;20026;-54
2022/10/14 10:15:28;;;;;;;6.78;2.60;;;;;;;26.02;42.34;100888.50;4994296;28;20045;-52
2022/10/14 10:17:56;;;;;;;8.95;3.15;;;;;;;26.13;42.50;100903.44;4994535;28;20034;-55
2022/10/14 10:20:30;;;;;;;8.45;2.47;;;;;;;25.90;41.91;100891.94;4977496;28;20027;-55
2022/10/14 10:23:24;;;;;;;9.07;2.83;;;;;;;25.80;42.91;100903.31;4977656;28;20030;-55
2022/10/14 10:25:51;;;;;;;5.55;2.05;;;;;;;25.81;42.88;100889.31;4995134;28;20113;-54
2022/10/14 10:28:30;;;;;;;8.55;2.58;;;;;;;25.77;42.75;100892.78;4996460;28;20032;-52
2022/10/14 10:31:27;;;;;;;7.88;2.15;;;;;;;25.76;42.43;100888.41;4997443;28;20118;-53
2022/10/14 10:34:06;;;;;;;7.30;2.03;;;;;;;25.81;42.34;100897.19;4990980;28;20587;-56
2022/10/14 10:36:40;;;;;;;6.85;1.80;;;;;;;25.90;42.21;100909.44;4997020;28;20033;-55
2022/10/14 10:39:17;;;;;;;6.78;2.53;;;;;;;25.93;42.25;100906.84;4980171;28;20027;-51
2022/10/14 10:42:24;;;;;;;6.88;2.70;;;;;;;25.84;42.29;100881.41;4989644;28;20041;-49
2022/10/14 10:45:20;;;;;;;10.73;2.30;;;;;;;25.99;42.46;100892.84;4993262;28;20062;-55
2022/10/14 10:48:03;;;;;;;7.68;2.78;;;;;;;25.83;42.38;100892.78;4985265;28;20038;-53
2022/10/14 10:50:57;;;;;;;7.28;2.42;;;;;;;25.84;42.27;100893.69;4993079;28;20034;-51
2022/10/14 10:53:48;;;;;;;6.82;2.28;;;;;;;25.83;42.31;100897.19;4991014;28;20042;-56
2022/10/14 10:56:40;;;;;;;9.13;2.25;;;;;;;25.85;42.47;100909.44;4991430;28;20026;-49
2022/10/14 10:59:29;;;;;;;8.65;2.65;;;;;;;25.90;42.08;100914.72;4970172;28;20451;-49
2022/10/14 11:02:02;;;;;;;7.45;2.33;;;;;;;25.90;42.01;100918.22;4983672;28;20038;-51
2022/10/14 11:04:50;;;;;;;7.50;2.00;;;;;;;25.88;42.09;100913.84;4993857;28;20040;-52
2022/10/14 11:13:36;;;;;;;6.20;2.08;;;;;;;25.90;41.97;100931.38;4973732;28;20046;-53
2022/10/14 11:16:06;;;;;;;7.32;2.20;;;;;;;25.94;42.05;100933.16;4990656;28;20141;-52
2022/10/14 11:19:12;;;;;;;5.35;1.80;;;;;;;25.90;42.03;100927.84;4990188;28;20438;-54
2022/10/14 11:21:52;;;;;;;4.65;1.73;;;;;;;25.90;41.97;100926.13;4991060;28;20054;-52
2022/10/14 11:24:46;;;;;;;6.18;2.08;;;;;;;25.96;41.88;100927.03;4976033;28;20022;-53
2022/10/14 11:27:36;;;;;;;6.43;1.88;;;;;;;25.98;41.79;100936.66;4991459;28;20038;-53
2022/10/14 11:30:13;;;;;;;4.25;1.35;;;;;;;25.97;42.17;100934.03;4991563;28;20085;-54
2022/10/14 11:32:48;;;;;;;3.47;1.13;;;;;;;25.97;42.08;100936.66;4990746;28;20141;-50
2022/10/14 11:35:38;;;;;;;3.78;1.75;;;;;;;25.98;41.95;100941.91;4990204;28;20085;-54
2022/10/14 11:38:18;;;;;;;5.50;1.33;;;;;;;26.02;41.92;100941.06;4972125;28;20415;-53
2022/10/14 11:40:54;;;;;;;4.78;1.45;;;;;;;26.03;41.92;100944.56;4989580;28;20061;-53
2022/10/14 11:43:40;;;;;;;5.07;1.08;;;;;;;25.99;42.05;100946.31;4991467;28;20034;-49
2022/10/14 11:46:27;;;;;;;4.93;1.38;;;;;;;26.00;42.35;100952.44;4990445;28;20026;-53
2022/10/14 11:49:04;;;;;;;2.58;0.77;;;;;;;26.01;42.20;100939.31;4975348;28;20027;-53
2022/10/14 11:51:45;;;;;;;2.00;0.82;;;;;;;25.98;42.15;100948.94;4973858;28;20048;-53
2022/10/14 11:54:22;;;;;;;3.90;1.05;;;;;;;26.03;42.49;100957.69;4992275;28;20034;-53